Lilly, GA (31051)

9:50 AM EDT on September 18, 2014 (GMT -0400)
Crisp County-Cordele | Change Station
CLOSE
Current Station
Airport
Location: Crisp Cnty-Cordele AP, Cordel,
Elevation: 308 ft
Nearby Weather Stations

Elev 308 ft 31.99 °N, 83.77 °W | Updated 15 minutes ago

Overcast
Overcast
68 °F
Feels Like 68 °F
N
6
Wind Variable Wind from North

Today
High -- | Low -- °F
--% Chance of Precip.
Yesterday
High -- | Low -- °F
Precip. -- in
7:21 AM 7:37 PM
Waning Crescent, 27% visible
Pressure 29.97 in
Visibility 0.2 miles
Clouds Overcast 200 ft
Dew Point 67 °F
Humidity 95%
Rainfall 0.00 in
Snow Depth Not available.
UV 1 out of 12
Pollen 8.10 out of 12
Air Quality Not available.
Flu Activity Not available.
METAR KCKF 181335Z AUTO 36005KT 1/4SM FG OVC002 20/19 A2997 RMK AO2 T02010193

More Conditions Fewer Conditions

Pressure 29.97 in
Visibility 0.2 miles
Clouds Overcast 200 ft
Dew Point 67 °F
Humidity 95%
Rainfall 0.00 in
Snow Depth Not available.
UV 1 out of 12
Pollen 8.10 out of 12
Air Quality Not available.
Flu Activity Not available.
METAR KCKF 181335Z AUTO 36005KT 1/4SM FG OVC002 20/19 A2997 RMK AO2 T02010193

More Conditions Fewer Conditions

10-Day Weather Forecast

Almanac

Astronomy

Sep. 18, 2014 Rise Set
Actual Time 7:21 AM EDT 7:37 PM EDT
Civil Twilight 6:56 AM EDT 8:01 PM EDT
Nautical Twilight 6:28 AM EDT 8:30 PM EDT
Astronomical Twilight 5:59 AM EDT 8:59 PM EDT
Moon 2:25 AM EDT 4:15 PM EDT
Length of Visible Light 13h 05m
Length of Day
12h 16m
Tomorrow will be 1m 57s shorter.
Waning Crescent, 27% of the Moon is Illuminated
Today
Waning Crescent
Sep 24
New
Oct 1
First Quarter
Oct 8
Full
Oct 15
Last Quarter

Today's Extremes

State Highs State Lows

Community

WunderPhotos

Upload Photos

1,754,347 photos uploaded!

Nearby

Snow Depth

Station Depth Elevation
No new snow has been reported.

Earthquake Activity

City Distance Mag. Time & Date
No recent earthquake activity has been reported nearby.
Minimum magnitude displayed is 2.5.

Coastal Water Temperatures

Place Temperature
No Stations Reporting

Nearby Weather Stations